Time;durP1;ratioP1;P1;durP2;ratioP2;P2;SDS_P1;SDS_P2;PMS_P1;PMS_P2;Temp;Humidity;BMP_temperature;BMP_pressure;BME280_temperature;BME280_humidity;BME280_pressure;Samples;Min_cycle;Max_cycle;Signal;HPM_P1;HPM_P2
2022/06/30 00:02:27;;;;;;;2.43;2.33;;;25.80;70.10;;;;;;5033126;28;20474;-82
2022/06/30 00:04:58;;;;;;;3.33;3.13;;;25.80;70.30;;;;;;5033166;28;20449;-82
2022/06/30 00:07:31;;;;;;;2.70;2.60;;;25.80;70.20;;;;;;5032988;28;20478;-83
2022/06/30 00:09:59;;;;;;;3.20;3.00;;;25.80;70.30;;;;;;5033366;28;20486;-82
2022/06/30 00:12:28;;;;;;;3.10;2.90;;;25.80;70.40;;;;;;5039558;28;20521;-83
2022/06/30 00:14:58;;;;;;;2.47;2.33;;;25.80;70.30;;;;;;5039727;28;20521;-83
2022/06/30 00:17:29;;;;;;;2.70;2.53;;;25.80;70.30;;;;;;5039540;28;20482;-82
2022/06/30 00:19:58;;;;;;;3.07;2.87;;;25.80;70.40;;;;;;5039626;28;20453;-83
2022/06/30 00:22:25;;;;;;;2.70;2.60;;;25.80;70.40;;;;;;5039415;28;20500;-84
2022/06/30 00:24:53;;;;;;;3.00;2.80;;;25.80;70.50;;;;;;5039526;28;20443;-84
2022/06/30 00:27:20;;;;;;;3.10;2.90;;;25.80;70.40;;;;;;5039286;28;20517;-84
2022/06/30 00:29:47;;;;;;;3.20;3.00;;;25.80;70.50;;;;;;5039737;28;20452;-84
2022/06/30 00:32:14;;;;;;;3.00;2.80;;;25.80;70.50;;;;;;5039691;28;20815;-84
2022/06/30 00:34:46;;;;;;;2.90;2.77;;;25.80;70.50;;;;;;5039492;28;20477;-83
2022/06/30 00:37:15;;;;;;;3.10;2.90;;;25.80;70.50;;;;;;5039414;28;20452;-83
2022/06/30 00:39:46;;;;;;;2.60;2.50;;;25.80;70.50;;;;;;5039502;28;20561;-82
2022/06/30 00:42:16;;;;;;;3.17;2.97;;;25.80;70.60;;;;;;5039507;28;20537;-83
2022/06/30 00:44:45;;;;;;;3.27;3.07;;;25.80;70.60;;;;;;5039592;28;20527;-83
2022/06/30 00:47:15;;;;;;;3.10;2.90;;;25.80;70.60;;;;;;5039214;28;20438;-83
2022/06/30 00:49:47;;;;;;;2.93;2.73;;;25.80;70.60;;;;;;5039395;28;20533;-83
2022/06/30 00:52:16;;;;;;;3.27;3.07;;;25.80;70.60;;;;;;5039401;28;20508;-82
2022/06/30 00:54:46;;;;;;;3.40;3.20;;;25.80;70.70;;;;;;5039299;28;20505;-83
2022/06/30 00:57:18;;;;;;;3.40;3.10;;;25.80;70.60;;;;;;5039303;28;20512;-82
2022/06/30 00:59:48;;;;;;;3.07;2.87;;;25.80;70.70;;;;;;5039639;28;20533;-83
2022/06/30 01:02:16;;;;;;;2.87;2.77;;;25.80;70.70;;;;;;5039227;28;20438;-83
2022/06/30 01:04:46;;;;;;;3.20;2.90;;;25.70;70.60;;;;;;5039309;28;20854;-83
2022/06/30 01:07:15;;;;;;;3.13;2.93;;;25.80;70.70;;;;;;5039077;28;20925;-83
2022/06/30 01:12:43;;;;;;;3.00;2.80;;;25.80;70.80;;;;;;5040355;28;20424;-83
2022/06/30 01:15:11;;;;;;;2.90;2.70;;;25.80;70.80;;;;;;5039495;28;20478;-82
2022/06/30 01:17:38;;;;;;;2.90;2.70;;;25.80;70.90;;;;;;5041228;28;20504;-83
2022/06/30 01:20:06;;;;;;;2.60;2.50;;;25.80;70.90;;;;;;5039513;28;20440;-84
2022/06/30 01:22:34;;;;;;;3.00;2.80;;;25.70;70.80;;;;;;5037044;28;20954;-84
2022/06/30 01:25:01;;;;;;;2.93;2.73;;;25.70;70.80;;;;;;5037651;28;20956;-84
2022/06/30 01:27:27;;;;;;;3.17;2.97;;;25.70;70.80;;;;;;5036266;28;20637;-84
2022/06/30 01:29:54;;;;;;;3.20;3.00;;;25.80;70.80;;;;;;5036435;28;20533;-84
2022/06/30 01:32:22;;;;;;;2.90;2.80;;;25.80;70.90;;;;;;5036505;28;20529;-84
2022/06/30 01:34:48;;;;;;;3.40;3.20;;;25.80;70.90;;;;;;5035699;28;20493;-83
2022/06/30 01:37:15;;;;;;;3.03;2.90;;;25.80;71.70;;;;;;5035679;28;20553;-84
2022/06/30 01:39:44;;;;;;;3.33;3.13;;;25.70;70.80;;;;;;5035190;28;20554;-84
2022/06/30 01:42:11;;;;;;;2.70;2.60;;;25.80;70.90;;;;;;5035678;28;20938;-84
2022/06/30 01:44:38;;;;;;;2.93;2.73;;;25.80;70.90;;;;;;5035567;28;20524;-83
2022/06/30 01:47:05;;;;;;;3.20;3.00;;;25.80;70.90;;;;;;5035502;28;20475;-83
2022/06/30 01:49:32;;;;;;;3.27;3.07;;;25.80;70.90;;;;;;5035580;28;21013;-82
2022/06/30 01:51:59;;;;;;;2.47;2.37;;;25.80;71.70;;;;;;5035464;28;20538;-83
2022/06/30 01:54:29;;;;;;;3.13;2.93;;;25.80;70.90;;;;;;5035355;28;20506;-83
2022/06/30 01:56:58;;;;;;;3.00;2.80;;;25.80;70.90;;;;;;5035390;28;20481;-84
2022/06/30 01:59:25;;;;;;;2.90;2.70;;;25.80;70.90;;;;;;5035992;28;20529;-83
2022/06/30 02:01:52;;;;;;;2.67;2.50;;;25.80;70.90;;;;;;5035295;28;20489;-83
2022/06/30 02:07:03;;;;;;;3.20;2.90;;;25.80;70.90;;;;;;5035269;28;20477;-84
2022/06/30 02:09:30;;;;;;;3.00;2.80;;;25.80;70.90;;;;;;5035165;28;20569;-83
2022/06/30 02:14:39;;;;;;;3.60;3.40;;;25.80;70.90;;;;;;5034029;28;20522;-83
2022/06/30 02:17:06;;;;;;;2.70;2.50;;;25.80;70.90;;;;;;5034985;28;20485;-83
2022/06/30 02:19:33;;;;;;;3.07;2.87;;;25.70;70.90;;;;;;5034804;28;20447;-83
2022/06/30 02:22:00;;;;;;;2.67;2.57;;;25.80;70.90;;;;;;5034880;28;20470;-84
2022/06/30 02:24:27;;;;;;;2.97;2.77;;;25.70;70.80;;;;;;5034842;28;20529;-84
2022/06/30 02:26:54;;;;;;;2.87;2.70;;;25.80;70.90;;;;;;5034715;28;20481;-84
2022/06/30 02:29:22;;;;;;;3.30;3.10;;;25.80;70.90;;;;;;5034635;28;20522;-89
2022/06/30 02:31:49;;;;;;;3.27;3.07;;;25.80;70.90;;;;;;5034774;28;20443;-84
2022/06/30 02:34:15;;;;;;;2.83;2.73;;;25.80;70.90;;;;;;5034622;28;20479;-83
2022/06/30 02:36:42;;;;;;;3.27;3.07;;;25.70;70.80;;;;;;5034370;28;20530;-83
2022/06/30 02:39:09;;;;;;;3.43;3.23;;;25.70;70.80;;;;;;5034666;28;20497;-83
2022/06/30 02:41:36;;;;;;;3.43;3.23;;;25.80;70.90;;;;;;5034506;28;20534;-83
2022/06/30 02:44:03;;;;;;;6.70;3.27;;;25.70;70.90;;;;;;5034884;28;20530;-83
2022/06/30 02:46:31;;;;;;;3.00;2.80;;;25.70;70.90;;;;;;5034719;28;20489;-83
2022/06/30 02:48:58;;;;;;;3.20;3.00;;;25.80;70.90;;;;;;5034468;28;20578;-84
2022/06/30 02:51:25;;;;;;;2.90;2.80;;;25.80;71.00;;;;;;5034586;28;20435;-84
2022/06/30 02:53:52;;;;;;;2.60;2.50;;;25.80;70.90;;;;;;5034484;28;20555;-84
2022/06/30 02:56:19;;;;;;;2.80;2.70;;;25.70;70.80;;;;;;5034383;28;20953;-84
2022/06/30 02:58:47;;;;;;;3.37;3.17;;;25.70;70.90;;;;;;5034186;28;20530;-82
2022/06/30 03:01:14;;;;;;;3.40;3.20;;;25.80;70.90;;;;;;5034043;28;20439;-84
2022/06/30 03:03:43;;;;;;;4.00;3.80;;;25.70;70.90;;;;;;5034023;28;20542;-84
2022/06/30 03:06:13;;;;;;;3.33;3.13;;;25.80;70.90;;;;;;5034110;28;20870;-84
2022/06/30 03:08:40;;;;;;;3.43;3.23;;;25.80;70.90;;;;;;5033953;28;20490;-82
2022/06/30 03:11:07;;;;;;;3.30;3.10;;;25.80;70.90;;;;;;5033964;28;20843;-82
2022/06/30 03:13:34;;;;;;;3.30;3.10;;;25.80;70.90;;;;;;5034063;28;20431;-83
2022/06/30 03:16:01;;;;;;;2.93;2.83;;;25.80;70.90;;;;;;5033861;28;20533;-83
2022/06/30 03:18:28;;;;;;;3.13;2.93;;;25.80;70.90;;;;;;5033702;28;20447;-83
2022/06/30 03:20:57;;;;;;;3.10;2.90;;;25.80;70.90;;;;;;5033751;28;20439;-83
2022/06/30 03:23:25;;;;;;;3.40;3.20;;;25.80;70.90;;;;;;5033721;28;20492;-83
2022/06/30 03:25:52;;;;;;;3.10;2.90;;;25.80;71.00;;;;;;5033718;28;20496;-83
2022/06/30 03:28:18;;;;;;;3.50;3.30;;;25.70;70.90;;;;;;5033307;28;20577;-83
2022/06/30 03:30:47;;;;;;;3.23;3.03;;;25.80;70.90;;;;;;5033867;28;20446;-83
2022/06/30 03:33:14;;;;;;;3.10;2.90;;;25.70;70.80;;;;;;5033719;28;20934;-84
2022/06/30 03:35:41;;;;;;;3.33;3.13;;;25.80;70.90;;;;;;5033611;28;20458;-83
2022/06/30 03:38:09;;;;;;;3.20;3.00;;;25.70;70.90;;;;;;5033584;28;20850;-83
2022/06/30 03:40:37;;;;;;;2.80;2.60;;;25.80;71.90;;;;;;5033178;28;20478;-83
2022/06/30 03:43:04;;;;;;;2.83;2.63;;;25.80;70.90;;;;;;5033437;28;20475;-83
2022/06/30 03:45:31;;;;;;;3.50;3.30;;;25.80;70.90;;;;;;5032850;28;20978;-83
2022/06/30 03:48:00;;;;;;;3.40;3.20;;;25.70;70.80;;;;;;5033460;28;20459;-83
2022/06/30 03:50:28;;;;;;;3.07;2.87;;;25.70;70.80;;;;;;5033418;28;20492;-83
2022/06/30 03:52:54;;;;;;;3.50;3.30;;;25.70;70.80;;;;;;5033307;28;20446;-84
2022/06/30 03:55:23;;;;;;;3.53;3.33;;;25.70;70.90;;;;;;5033260;28;20952;-84
2022/06/30 03:57:50;;;;;;;3.97;3.67;;;25.70;70.80;;;;;;5033262;28;20526;-93
2022/06/30 04:00:17;;;;;;;3.00;2.90;;;25.70;70.80;;;;;;5033101;28;20431;-84
2022/06/30 04:02:45;;;;;;;3.37;3.17;;;25.80;70.90;;;;;;5033274;28;20477;-84
2022/06/30 04:05:11;;;;;;;3.13;2.93;;;25.70;70.80;;;;;;5033194;28;20441;-84
2022/06/30 04:07:42;;;;;;;3.60;3.40;;;25.80;70.90;;;;;;5033123;28;20478;-84
2022/06/30 04:10:09;;;;;;;3.03;2.87;;;25.80;70.90;;;;;;5033124;28;20521;-84
2022/06/30 04:12:38;;;;;;;3.17;2.97;;;25.80;70.90;;;;;;5033032;28;20439;-84
2022/06/30 04:15:05;;;;;;;3.43;3.23;;;25.80;70.90;;;;;;5033281;28;20881;-85
2022/06/30 04:17:33;;;;;;;3.37;3.17;;;25.70;70.90;;;;;;5033002;28;20496;-84
2022/06/30 04:20:00;;;;;;;3.37;3.17;;;25.80;70.90;;;;;;5033000;28;20443;-84
2022/06/30 04:22:27;;;;;;;3.10;2.90;;;25.70;70.90;;;;;;5032933;28;20537;-84
2022/06/30 04:24:54;;;;;;;3.30;3.10;;;25.70;70.80;;;;;;5033173;28;20526;-84
2022/06/30 04:27:21;;;;;;;3.33;3.13;;;25.80;70.90;;;;;;5032630;28;20482;-82
2022/06/30 04:29:49;;;;;;;3.57;3.37;;;25.70;70.90;;;;;;5032833;28;20517;-84
2022/06/30 04:35:01;;;;;;;3.57;3.37;;;25.70;70.90;;;;;;5033115;28;20414;-82
2022/06/30 04:37:28;;;;;;;3.20;2.90;;;25.70;70.90;;;;;;5033092;28;20803;-84
2022/06/30 04:41:23;;;;;;;3.50;3.30;;;25.70;70.90;;;;;;5032701;28;20486;-93
2022/06/30 04:42:41;;;;;;;3.73;3.53;;;25.70;70.90;;;;;;5032791;28;20453;-92
2022/06/30 04:45:10;;;;;;;3.20;3.00;;;25.70;70.90;;;;;;5032891;28;20427;-83
2022/06/30 04:47:38;;;;;;;2.90;2.80;;;25.70;70.90;;;;;;5032884;28;20196;-83
2022/06/30 04:50:06;;;;;;;3.40;3.20;;;25.70;71.80;;;;;;5032824;28;20482;-83
2022/06/30 04:52:33;;;;;;;3.30;3.10;;;25.70;70.90;;;;;;5032714;28;20467;-83
2022/06/30 04:55:01;;;;;;;3.20;3.00;;;25.70;70.90;;;;;;5032856;28;20528;-83
2022/06/30 04:57:27;;;;;;;3.30;3.13;;;25.70;70.90;;;;;;5034782;28;20482;-83
2022/06/30 04:59:54;;;;;;;3.23;3.03;;;25.70;70.90;;;;;;5036525;28;20485;-84
2022/06/30 05:02:23;;;;;;;3.40;3.20;;;25.70;70.90;;;;;;5036877;28;20471;-83
2022/06/30 05:04:49;;;;;;;3.47;3.27;;;25.70;70.90;;;;;;5036355;28;20538;-83
2022/06/30 05:07:17;;;;;;;3.63;3.43;;;25.70;70.90;;;;;;5036287;28;20431;-84
2022/06/30 05:09:45;;;;;;;3.83;3.63;;;25.70;70.90;;;;;;5036177;28;20486;-83
2022/06/30 05:12:12;;;;;;;3.50;3.30;;;25.70;70.90;;;;;;5036280;28;20442;-84
2022/06/30 05:14:39;;;;;;;3.07;2.87;;;25.70;70.90;;;;;;5036444;28;20470;-83
2022/06/30 05:17:06;;;;;;;3.10;2.90;;;25.70;70.90;;;;;;5036348;28;20438;-83
2022/06/30 05:19:35;;;;;;;3.20;3.00;;;25.70;70.90;;;;;;5036185;28;20478;-83
2022/06/30 05:22:02;;;;;;;3.20;3.00;;;25.70;70.90;;;;;;5036025;28;20477;-83
2022/06/30 05:27:22;;;;;;;3.70;3.50;;;25.70;70.90;;;;;;4980555;28;20535;-83
2022/06/30 05:29:49;;;;;;;3.10;2.90;;;25.70;71.00;;;;;;5016297;28;20519;-92
2022/06/30 05:32:16;;;;;;;3.10;2.90;;;25.70;71.00;;;;;;5016137;28;20930;-83
2022/06/30 05:34:44;;;;;;;3.63;3.43;;;25.70;71.00;;;;;;5015982;28;20432;-83
2022/06/30 05:37:11;;;;;;;3.37;3.17;;;25.70;71.00;;;;;;5016046;28;20858;-84
2022/06/30 05:39:38;;;;;;;3.40;3.20;;;25.70;71.00;;;;;;5015696;28;20563;-84
2022/06/30 05:42:06;;;;;;;3.33;3.13;;;25.70;71.90;;;;;;5015745;28;20486;-84
2022/06/30 05:44:33;;;;;;;3.63;3.43;;;25.70;71.10;;;;;;5015871;28;20444;-84
2022/06/30 05:47:00;;;;;;;3.30;3.13;;;25.70;71.10;;;;;;5015886;28;20534;-84
2022/06/30 05:49:27;;;;;;;3.73;3.53;;;25.70;71.10;;;;;;5015569;28;20519;-84
2022/06/30 05:51:56;;;;;;;3.70;3.50;;;25.70;71.10;;;;;;5015893;28;20864;-84
2022/06/30 05:54:30;;;;;;;3.70;3.50;;;25.70;71.10;;;;;;5015980;28;20884;-84
2022/06/30 05:56:57;;;;;;;3.80;3.60;;;25.70;71.10;;;;;;5015700;28;20537;-84
2022/06/30 05:59:24;;;;;;;3.00;2.87;;;25.70;71.20;;;;;;5015676;28;20552;-83
2022/06/30 06:01:50;;;;;;;3.63;3.43;;;25.70;71.20;;;;;;5015419;28;20444;-84
2022/06/30 06:04:17;;;;;;;2.90;2.80;;;25.70;71.10;;;;;;5015546;28;20475;-83
2022/06/30 06:06:44;;;;;;;3.50;3.30;;;25.70;71.20;;;;;;5015645;28;20486;-83
2022/06/30 06:09:12;;;;;;;3.30;3.10;;;25.70;71.20;;;;;;5014654;28;20483;-83
2022/06/30 06:11:39;;;;;;;3.80;3.60;;;25.70;71.20;;;;;;5015320;28;20471;-83
2022/06/30 06:14:06;;;;;;;4.03;3.83;;;25.70;72.00;;;;;;5015217;28;20447;-84
2022/06/30 06:16:34;;;;;;;3.03;2.83;;;25.70;71.20;;;;;;5015278;28;20526;-84
2022/06/30 06:19:01;;;;;;;3.60;3.40;;;25.70;71.20;;;;;;5015334;28;20481;-84
2022/06/30 06:21:28;;;;;;;3.20;3.00;;;25.70;71.20;;;;;;5015237;28;20475;-84
2022/06/30 06:23:55;;;;;;;3.47;3.27;;;25.70;71.20;;;;;;5015108;28;20479;-83
2022/06/30 06:26:24;;;;;;;3.23;3.03;;;25.70;71.20;;;;;;5015624;28;20525;-84
2022/06/30 06:29:09;;;;;;;3.07;2.87;;;25.70;71.20;;;;;;5034932;28;20450;-84
2022/06/30 06:31:38;;;;;;;3.53;3.33;;;25.70;71.20;;;;;;5034974;28;20488;-93
2022/06/30 06:34:07;;;;;;;3.30;3.10;;;25.70;71.10;;;;;;5034814;28;20470;-84
2022/06/30 06:36:35;;;;;;;3.20;3.00;;;25.70;71.10;;;;;;5034712;28;20478;-84
2022/06/30 06:39:02;;;;;;;3.40;3.20;;;25.70;71.00;;;;;;5034620;28;20458;-84
2022/06/30 06:41:30;;;;;;;3.80;3.60;;;25.70;71.00;;;;;;5034407;28;20478;-83
2022/06/30 06:43:57;;;;;;;3.57;3.37;;;25.70;71.00;;;;;;5034707;28;20846;-83
2022/06/30 06:46:27;;;;;;;3.33;3.13;;;25.70;70.90;;;;;;5034240;28;20512;-92
2022/06/30 06:48:55;;;;;;;3.20;3.00;;;25.70;70.90;;;;;;5034306;28;20439;-84
2022/06/30 06:51:22;;;;;;;3.20;3.00;;;25.70;70.90;;;;;;5034369;28;20525;-83
2022/06/30 06:53:49;;;;;;;3.57;3.37;;;25.70;70.90;;;;;;5034313;28;20474;-84
2022/06/30 06:56:16;;;;;;;3.70;3.50;;;25.70;70.90;;;;;;5034163;28;20447;-93
2022/06/30 06:58:44;;;;;;;3.53;3.33;;;25.70;71.70;;;;;;5034240;28;20443;-84
2022/06/30 07:01:11;;;;;;;3.47;3.27;;;25.80;70.90;;;;;;5034116;28;20569;-83
2022/06/30 07:03:38;;;;;;;3.43;3.23;;;25.70;70.90;;;;;;5034182;28;20533;-83
2022/06/30 07:06:05;;;;;;;3.40;3.20;;;25.70;70.80;;;;;;5034383;28;20530;-83
2022/06/30 07:08:32;;;;;;;3.30;3.10;;;25.70;70.70;;;;;;5033913;28;20546;-83
2022/06/30 07:10:59;;;;;;;3.20;3.00;;;25.80;70.90;;;;;;5033946;28;20510;-82
2022/06/30 07:13:27;;;;;;;3.40;3.20;;;25.80;70.80;;;;;;5033986;28;20949;-83
2022/06/30 07:15:55;;;;;;;2.90;2.70;;;25.80;70.70;;;;;;5033914;28;20445;-83
2022/06/30 07:18:22;;;;;;;3.63;3.43;;;25.80;70.60;;;;;;5033803;28;20922;-84
2022/06/30 07:20:49;;;;;;;3.23;3.03;;;25.80;70.70;;;;;;5032757;28;20949;-91
2022/06/30 07:23:16;;;;;;;3.07;2.97;;;25.80;70.60;;;;;;5033709;28;20944;-83
2022/06/30 07:25:43;;;;;;;3.43;3.23;;;25.70;70.40;;;;;;5033841;28;20501;-83
2022/06/30 07:28:10;;;;;;;3.00;2.90;;;25.70;70.40;;;;;;5033745;28;20890;-83
2022/06/30 07:30:37;;;;;;;3.60;3.40;;;25.80;70.50;;;;;;5033621;28;21053;-83
2022/06/30 07:33:05;;;;;;;3.13;2.93;;;25.70;70.40;;;;;;5033735;28;20470;-83
2022/06/30 07:35:32;;;;;;;3.40;3.20;;;25.80;70.50;;;;;;5033533;28;20542;-83
2022/06/30 07:37:59;;;;;;;3.27;3.07;;;25.80;70.50;;;;;;5033356;28;20530;-87
2022/06/30 07:40:26;;;;;;;3.50;3.30;;;25.80;70.50;;;;;;5033333;28;20529;-83
2022/06/30 07:42:55;;;;;;;3.60;3.40;;;25.80;70.50;;;;;;5033522;28;20510;-83
2022/06/30 07:45:22;;;;;;;3.47;3.27;;;25.80;70.50;;;;;;5033562;28;20889;-82
2022/06/30 07:47:51;;;;;;;3.70;3.50;;;25.80;70.60;;;;;;5033379;28;20780;-83
2022/06/30 07:50:19;;;;;;;3.47;3.30;;;25.80;70.60;;;;;;5033482;28;20551;-84
2022/06/30 07:52:46;;;;;;;3.50;3.30;;;25.80;70.50;;;;;;5033211;28;20449;-84
2022/06/30 07:55:14;;;;;;;3.30;3.10;;;25.80;70.60;;;;;;5033292;28;20792;-84
2022/06/30 07:57:43;;;;;;;3.47;3.27;;;25.80;70.50;;;;;;5033379;28;20481;-84
2022/06/30 08:00:11;;;;;;;3.57;3.37;;;25.80;70.50;;;;;;5033320;28;20446;-84
2022/06/30 08:02:38;;;;;;;3.50;3.30;;;25.80;70.50;;;;;;5033363;28;20473;-84
2022/06/30 08:05:06;;;;;;;2.80;2.63;;;25.80;70.60;;;;;;5033340;28;20445;-92
2022/06/30 08:07:34;;;;;;;3.10;2.90;;;25.80;71.40;;;;;;5033122;28;20539;-84
2022/06/30 08:10:02;;;;;;;3.20;3.00;;;25.80;70.60;;;;;;5032885;28;20573;-84
2022/06/30 08:12:28;;;;;;;3.63;3.43;;;25.80;70.50;;;;;;5033003;28;20438;-83
2022/06/30 08:14:55;;;;;;;3.40;3.20;;;25.80;70.50;;;;;;5033056;28;20959;-84
2022/06/30 08:17:23;;;;;;;3.30;3.10;;;25.80;70.50;;;;;;5032986;28;20459;-84
2022/06/30 08:19:49;;;;;;;3.30;3.10;;;25.80;70.50;;;;;;5033075;28;20443;-84
2022/06/30 08:22:16;;;;;;;3.63;3.43;;;25.80;70.60;;;;;;5033056;28;20522;-84
2022/06/30 08:24:45;;;;;;;2.93;2.83;;;25.80;70.60;;;;;;5032989;28;20457;-84
2022/06/30 08:27:12;;;;;;;3.60;3.40;;;25.80;70.60;;;;;;5032684;28;21081;-84
2022/06/30 08:29:39;;;;;;;2.83;2.73;;;25.80;70.60;;;;;;5032987;28;20442;-84
2022/06/30 08:32:07;;;;;;;2.93;2.80;;;25.80;70.60;;;;;;5034597;28;20492;-84
2022/06/30 08:34:34;;;;;;;2.80;2.70;;;25.80;70.60;;;;;;5037118;28;20478;-92
2022/06/30 08:37:01;;;;;;;3.37;3.17;;;25.80;70.70;;;;;;5036867;28;20545;-84
2022/06/30 08:42:14;;;;;;;2.67;2.57;;;25.80;70.70;;;;;;5036910;28;20418;-90
2022/06/30 08:44:43;;;;;;;3.33;3.13;;;25.80;70.70;;;;;;5036729;28;20434;-83
2022/06/30 08:47:12;;;;;;;3.47;3.27;;;25.80;70.80;;;;;;5036545;28;20442;-84
2022/06/30 08:49:39;;;;;;;3.57;3.37;;;25.80;70.80;;;;;;5036779;28;20438;-84
2022/06/30 08:52:08;;;;;;;3.10;2.90;;;25.80;70.80;;;;;;5036148;28;20478;-83
2022/06/30 08:54:38;;;;;;;2.90;2.70;;;25.80;70.80;;;;;;5035664;28;20949;-83
2022/06/30 08:57:06;;;;;;;2.90;2.70;;;25.80;70.70;;;;;;5035238;28;20450;-83
2022/06/30 08:59:35;;;;;;;2.77;2.67;;;25.80;70.70;;;;;;5035782;28;20521;-83
2022/06/30 09:02:02;;;;;;;2.83;2.70;;;25.80;70.70;;;;;;5036165;28;20446;-83
2022/06/30 09:04:29;;;;;;;2.63;2.53;;;25.80;70.80;;;;;;5036158;28;20514;-83
2022/06/30 09:06:57;;;;;;;3.10;3.00;;;25.80;70.60;;;;;;5036146;28;20442;-83
2022/06/30 09:09:24;;;;;;;2.90;2.70;;;25.80;70.70;;;;;;5036312;28;20863;-83
2022/06/30 09:11:53;;;;;;;2.87;2.67;;;25.80;70.70;;;;;;5036186;28;20575;-83
2022/06/30 09:14:38;;;;;;;3.50;3.30;;;25.80;70.70;;;;;;5036246;28;20858;-83
2022/06/30 09:17:07;;;;;;;3.20;3.00;;;25.80;70.60;;;;;;5036175;28;20442;-83
2022/06/30 09:19:37;;;;;;;2.47;2.37;;;25.80;70.80;;;;;;5036056;28;20529;-83
2022/06/30 09:22:09;;;;;;;3.30;3.10;;;25.80;70.80;;;;;;5036128;28;20786;-84
2022/06/30 09:24:36;;;;;;;2.90;2.70;;;25.80;70.80;;;;;;5035987;28;20483;-83
2022/06/30 09:27:16;;;;;;;2.90;2.80;;;25.80;70.70;;;;;;5035614;28;20565;-83
2022/06/30 09:29:56;;;;;;;2.97;2.77;;;25.90;70.80;;;;;;5035839;28;20529;-87
2022/06/30 09:32:23;;;;;;;2.43;2.33;;;25.90;70.90;;;;;;5036008;28;20500;-83
2022/06/30 09:34:52;;;;;;;3.10;2.90;;;25.80;70.90;;;;;;5035932;28;20529;-83
2022/06/30 09:37:21;;;;;;;2.97;2.77;;;25.80;70.80;;;;;;5035852;28;20439;-83
2022/06/30 09:39:48;;;;;;;3.17;2.97;;;25.80;70.80;;;;;;5035508;28;20490;-83
2022/06/30 09:42:36;;;;;;;2.67;2.57;;;25.80;70.80;;;;;;5035740;28;20865;-83
2022/06/30 09:45:05;;;;;;;2.90;2.70;;;25.80;70.80;;;;;;5035064;28;20431;-83
2022/06/30 09:47:32;;;;;;;2.63;2.47;;;25.80;70.80;;;;;;5035511;28;20473;-83
2022/06/30 09:50:03;;;;;;;2.83;2.63;;;25.80;70.80;;;;;;5035488;28;20489;-83
2022/06/30 09:52:30;;;;;;;2.97;2.80;;;25.90;70.80;;;;;;5035549;28;20453;-83
2022/06/30 09:54:59;;;;;;;2.83;2.70;;;25.90;70.80;;;;;;5035683;28;20449;-83
2022/06/30 09:57:27;;;;;;;2.60;2.40;;;25.90;70.80;;;;;;5035504;28;20843;-83
2022/06/30 10:00:04;;;;;;;2.70;2.60;;;25.90;70.80;;;;;;5035639;28;20504;-83
2022/06/30 10:02:34;;;;;;;2.63;2.53;;;25.90;70.80;;;;;;5035516;28;20547;-83
2022/06/30 10:05:02;;;;;;;2.60;2.50;;;25.90;70.80;;;;;;5035142;28;20445;-84
2022/06/30 10:07:29;;;;;;;2.47;2.37;;;25.90;70.80;;;;;;5035314;28;20445;-83
2022/06/30 10:09:56;;;;;;;2.53;2.40;;;25.90;70.80;;;;;;5035016;28;21004;-83
2022/06/30 10:12:25;;;;;;;2.43;2.27;;;25.80;70.70;;;;;;5035197;28;20445;-83
2022/06/30 10:14:53;;;;;;;2.93;2.73;;;25.80;70.70;;;;;;5035070;28;20482;-83
2022/06/30 10:17:23;;;;;;;2.43;2.33;;;25.90;71.60;;;;;;5035129;28;20547;-92
2022/06/30 10:19:52;;;;;;;2.33;2.23;;;25.80;70.60;;;;;;5034954;28;20490;-83
2022/06/30 10:22:22;;;;;;;2.90;2.70;;;25.90;70.70;;;;;;5035269;28;20445;-83
2022/06/30 10:24:50;;;;;;;2.37;2.23;;;25.80;70.70;;;;;;5034908;28;20443;-83
2022/06/30 10:27:18;;;;;;;2.40;2.30;;;25.90;70.80;;;;;;5034591;28;20537;-83
2022/06/30 10:29:50;;;;;;;2.47;2.37;;;25.90;70.70;;;;;;5035169;28;20435;-83
2022/06/30 10:32:28;;;;;;;2.97;2.77;;;25.90;70.70;;;;;;5034713;28;20573;-85
2022/06/30 10:35:05;;;;;;;2.63;2.43;;;25.90;70.70;;;;;;5035060;28;20526;-93
2022/06/30 10:37:40;;;;;;;2.53;2.40;;;25.90;71.60;;;;;;5034886;28;20517;-84
2022/06/30 10:40:14;;;;;;;2.23;2.13;;;25.90;70.80;;;;;;5034623;28;20462;-83
2022/06/30 10:42:46;;;;;;;2.23;2.13;;;25.90;70.80;;;;;;5034789;28;20477;-84
2022/06/30 10:45:49;;;;;;;2.27;2.10;;;25.90;70.80;;;;;;5034642;28;20459;-83
2022/06/30 10:48:16;;;;;;;2.33;2.23;;;25.90;70.60;;;;;;5018130;28;20977;-83
2022/06/30 10:50:45;;;;;;;2.53;2.33;;;25.80;70.70;;;;;;5034020;28;20485;-91
2022/06/30 10:53:17;;;;;;;1.80;1.70;;;25.90;70.80;;;;;;5034524;28;20446;-83
2022/06/30 10:55:45;;;;;;;2.07;1.97;;;25.90;70.80;;;;;;5034237;28;20462;-93
2022/06/30 10:58:12;;;;;;;2.50;2.40;;;25.90;70.80;;;;;;5034572;28;20435;-84
2022/06/30 11:00:48;;;;;;;2.53;2.43;;;25.80;70.60;;;;;;5034355;28;20442;-92
2022/06/30 11:03:59;;;;;;;2.30;2.20;;;25.90;70.70;;;;;;5034593;28;20529;-92
2022/06/30 11:07:00;;;;;;;1.93;1.83;;;25.90;70.60;;;;;;5034331;28;20434;-93
2022/06/30 11:10:07;;;;;;;2.50;2.40;;;25.90;70.70;;;;;;5034217;28;20544;-83
2022/06/30 11:13:00;;;;;;;1.90;1.80;;;25.90;70.70;;;;;;5033940;28;20493;-83
2022/06/30 11:15:52;;;;;;;1.60;1.50;;;25.90;70.80;;;;;;5034182;28;20538;-92
2022/06/30 11:18:20;;;;;;;2.77;2.57;;;25.90;70.80;;;;;;5034271;28;20526;-93
2022/06/30 11:20:47;;;;;;;2.23;2.07;;;25.80;70.80;;;;;;5034195;28;20446;-92
2022/06/30 11:23:18;;;;;;;2.40;2.30;;;25.80;70.80;;;;;;5033922;28;20478;-91
2022/06/30 11:28:32;;;;;;;1.87;1.77;;;25.90;70.80;;;;;;5033833;28;20470;-92
2022/06/30 11:30:59;;;;;;;2.03;1.93;;;25.90;70.80;;;;;;5033684;28;20486;-83
2022/06/30 11:33:26;;;;;;;2.10;2.00;;;25.80;70.70;;;;;;5016205;28;20984;-83
2022/06/30 11:36:06;;;;;;;2.00;1.90;;;25.90;70.80;;;;;;5033775;28;20483;-92
2022/06/30 11:38:35;;;;;;;2.27;2.07;;;25.90;70.70;;;;;;5033588;28;20463;-84
2022/06/30 11:43:54;;;;;;;2.10;2.00;;;25.90;70.70;;;;;;5033917;28;20495;-93
2022/06/30 11:46:21;;;;;;;2.27;2.17;;;25.90;70.80;;;;;;5016776;28;20435;-93
2022/06/30 11:48:48;;;;;;;2.20;2.10;;;25.90;70.70;;;;;;5033664;28;20537;-92
2022/06/30 11:51:15;;;;;;;2.33;2.23;;;25.90;70.70;;;;;;5033701;28;20517;-83
2022/06/30 11:53:45;;;;;;;2.13;2.03;;;25.90;70.80;;;;;;5033665;28;20467;-83
2022/06/30 11:56:12;;;;;;;2.03;1.93;;;25.90;70.70;;;;;;5033403;28;20525;-83
2022/06/30 11:58:39;;;;;;;2.10;2.00;;;25.90;70.80;;;;;;5033348;28;20435;-83
2022/06/30 12:01:13;;;;;;;2.13;2.00;;;25.90;70.70;;;;;;5033125;28;20767;-83
2022/06/30 12:03:43;;;;;;;2.10;1.90;;;26.00;70.70;;;;;;5033375;28;20486;-93
2022/06/30 12:06:11;;;;;;;1.80;1.70;;;25.90;70.70;;;;;;5032621;28;20846;-83
2022/06/30 12:08:38;;;;;;;2.10;2.00;;;25.90;70.70;;;;;;5033124;28;20474;-83
2022/06/30 12:11:07;;;;;;;2.27;2.07;;;25.90;70.70;;;;;;5033004;28;20525;-83
2022/06/30 12:13:34;;;;;;;1.90;1.80;;;25.90;70.70;;;;;;5033369;28;20474;-83
2022/06/30 12:16:05;;;;;;;1.90;1.80;;;25.90;70.70;;;;;;5033072;28;20535;-84
2022/06/30 12:18:32;;;;;;;2.00;1.90;;;26.00;70.70;;;;;;5033174;28;20441;-83
2022/06/30 12:20:59;;;;;;;2.23;2.13;;;25.90;70.70;;;;;;5033154;28;20453;-86
2022/06/30 12:23:26;;;;;;;1.90;1.80;;;25.90;70.70;;;;;;5033040;28;20954;-83
2022/06/30 12:25:54;;;;;;;1.90;1.80;;;25.90;70.70;;;;;;5033175;28;20957;-83
2022/06/30 12:28:25;;;;;;;1.83;1.73;;;26.00;70.70;;;;;;5032875;28;20573;-83
2022/06/30 12:30:53;;;;;;;2.17;1.97;;;25.90;70.70;;;;;;5032837;28;20482;-83
2022/06/30 12:33:20;;;;;;;1.80;1.70;;;25.90;70.70;;;;;;5033028;28;20442;-83
2022/06/30 12:35:47;;;;;;;1.87;1.77;;;26.00;70.70;;;;;;5032923;28;20466;-83
2022/06/30 12:38:18;;;;;;;1.67;1.57;;;25.90;70.70;;;;;;5032858;28;20549;-83
2022/06/30 12:40:45;;;;;;;1.97;1.87;;;26.00;70.70;;;;;;5032799;28;20450;-83
2022/06/30 12:43:13;;;;;;;2.40;2.20;;;26.00;70.70;;;;;;5032827;28;20470;-84
2022/06/30 12:45:52;;;;;;;1.83;1.73;;;26.00;70.70;;;;;;5033067;28;20525;-93
2022/06/30 12:48:44;;;;;;;1.83;1.73;;;26.00;70.70;;;;;;5032947;28;20525;-83
2022/06/30 12:51:12;;;;;;;1.73;1.57;;;26.00;70.70;;;;;;5032833;28;20526;-90
2022/06/30 12:53:40;;;;;;;1.87;1.77;;;26.00;70.80;;;;;;5033012;28;20531;-83
2022/06/30 12:56:09;;;;;;;2.00;1.90;;;25.90;70.70;;;;;;5032932;28;20443;-83
2022/06/30 12:58:51;;;;;;;2.10;2.00;;;26.00;70.70;;;;;;5032815;28;20439;-92
2022/06/30 13:01:21;;;;;;;1.83;1.73;;;26.00;70.70;;;;;;5032717;28;20450;-92
2022/06/30 13:03:54;;;;;;;2.20;2.10;;;26.00;70.80;;;;;;5033052;28;20471;-83
2022/06/30 13:06:22;;;;;;;2.10;2.00;;;26.00;70.70;;;;;;5032760;28;20522;-89
2022/06/30 13:08:49;;;;;;;1.50;1.40;;;25.90;70.70;;;;;;5032625;28;20546;-83
2022/06/30 13:11:18;;;;;;;1.73;1.63;;;26.00;70.70;;;;;;5032498;28;20573;-83
2022/06/30 13:13:46;;;;;;;1.83;1.73;;;26.00;70.70;;;;;;5032649;28;20478;-93
2022/06/30 13:16:14;;;;;;;2.00;1.90;;;26.00;70.70;;;;;;5032492;28;21008;-84
2022/06/30 13:18:43;;;;;;;1.87;1.77;;;26.00;70.70;;;;;;5035047;28;20476;-83
2022/06/30 13:21:10;;;;;;;1.83;1.73;;;26.00;70.70;;;;;;5036147;28;20470;-83